Time;durP1;ratioP1;P1;durP2;ratioP2;P2;SDS_P1;SDS_P2;PMS_P1;PMS_P2;Temp;Humidity;BMP_temperature;BMP_pressure;BME280_temperature;BME280_humidity;BME280_pressure;Samples;Min_cycle;Max_cycle;Signal;HPM_P1;HPM_P2
2022/05/04 00:02:14;;;;;;;;;31.75;30.25;;;;;;;;5034301;28;51059;-49
2022/05/04 00:04:40;;;;;;;;;31.50;29.50;;;;;;;;5033061;28;51121;-49
2022/05/04 00:07:05;;;;;;;;;33.00;29.25;;;;;;;;5035770;28;50980;-49
2022/05/04 00:09:30;;;;;;;;;35.75;29.50;;;;;;;;5031287;28;51893;-49
2022/05/04 00:11:55;;;;;;;;;37.75;32.25;;;;;;;;5035557;28;51027;-49
2022/05/04 00:14:23;;;;;;;;;32.50;29.25;;;;;;;;5039458;28;51500;-50
2022/05/04 00:16:48;;;;;;;;;28.75;26.75;;;;;;;;5033198;28;51287;-49
2022/05/04 00:19:13;;;;;;;;;33.75;30.75;;;;;;;;5029398;28;51059;-51
2022/05/04 00:21:38;;;;;;;;;34.00;30.75;;;;;;;;5042956;28;51118;-51
2022/05/04 00:24:04;;;;;;;;;35.50;32.00;;;;;;;;5037435;28;50933;-51
2022/05/04 00:26:29;;;;;;;;;33.00;29.75;;;;;;;;5036550;28;51134;-51
2022/05/04 00:28:54;;;;;;;;;31.75;30.00;;;;;;;;5036510;28;51405;-48
2022/05/04 00:31:19;;;;;;;;;34.25;27.50;;;;;;;;5037074;28;51100;-50
2022/05/04 00:33:45;;;;;;;;;30.50;28.75;;;;;;;;5037155;28;51205;-50
2022/05/04 00:36:10;;;;;;;;;34.75;33.00;;;;;;;;5033483;28;50921;-50
2022/05/04 00:38:35;;;;;;;;;36.25;32.00;;;;;;;;5042015;28;51229;-50
2022/05/04 00:41:00;;;;;;;;;29.25;28.25;;;;;;;;5042941;28;51196;-50
2022/05/04 00:43:26;;;;;;;;;39.75;33.50;;;;;;;;5046087;28;51101;-52
2022/05/04 00:45:51;;;;;;;;;35.25;32.00;;;;;;;;5034048;28;51286;-48
2022/05/04 00:48:17;;;;;;;;;38.25;32.25;;;;;;;;5033108;28;51185;-49
2022/05/04 00:50:43;;;;;;;;;31.75;29.50;;;;;;;;5033487;28;51178;-49
2022/05/04 00:53:09;;;;;;;;;37.75;31.50;;;;;;;;5039365;28;51004;-50
2022/05/04 00:55:35;;;;;;;;;33.25;29.50;;;;;;;;5037222;28;51277;-51
2022/05/04 01:00:48;;;;;;;;;34.00;30.50;;;;;;;;5033954;28;50903;-51
2022/05/04 01:03:13;;;;;;;;;32.75;30.25;;;;;;;;5035899;28;51164;-49
2022/05/04 01:05:38;;;;;;;;;34.00;28.75;;;;;;;;5039632;28;51371;-49
2022/05/04 01:08:04;;;;;;;;;36.75;33.25;;;;;;;;5050408;28;51957;-49
2022/05/04 01:10:29;;;;;;;;;36.00;31.00;;;;;;;;5035995;28;51266;-50
2022/05/04 01:12:54;;;;;;;;;29.50;27.50;;;;;;;;5044734;28;51281;-50
2022/05/04 01:15:20;;;;;;;;;30.00;26.50;;;;;;;;5031324;28;51527;-49
2022/05/04 01:17:47;;;;;;;;;38.50;33.00;;;;;;;;5033212;28;52520;-50
2022/05/04 01:20:13;;;;;;;;;36.00;35.00;;;;;;;;5035788;28;51140;-49
2022/05/04 01:22:38;;;;;;;;;38.25;33.50;;;;;;;;5026635;28;51147;-50
2022/05/04 01:25:04;;;;;;;;;35.50;32.75;;;;;;;;5032351;28;51282;-49
2022/05/04 01:27:29;;;;;;;;;34.75;31.00;;;;;;;;5035852;28;52426;-49
2022/05/04 01:29:54;;;;;;;;;37.75;32.00;;;;;;;;5018062;28;51136;-49
2022/05/04 01:32:19;;;;;;;;;32.25;31.75;;;;;;;;5033343;28;51367;-50
2022/05/04 01:34:45;;;;;;;;;34.50;31.50;;;;;;;;5049161;28;51040;-50
2022/05/04 01:37:10;;;;;;;;;36.00;30.50;;;;;;;;5051262;28;51125;-49
2022/05/04 01:39:35;;;;;;;;;32.50;30.50;;;;;;;;5037640;28;50977;-50
2022/05/04 01:42:05;;;;;;;;;35.50;32.25;;;;;;;;5001295;28;1123627;-49
2022/05/04 01:44:30;;;;;;;;;32.25;32.25;;;;;;;;5041328;28;51257;-51
2022/05/04 01:46:56;;;;;;;;;36.50;32.75;;;;;;;;5040042;28;51730;-51
2022/05/04 01:49:21;;;;;;;;;32.75;31.25;;;;;;;;5028647;28;51071;-49
2022/05/04 01:51:46;;;;;;;;;35.25;33.50;;;;;;;;5035532;28;51233;-51
2022/05/04 01:54:11;;;;;;;;;31.75;29.50;;;;;;;;5030712;28;51066;-49
2022/05/04 01:56:37;;;;;;;;;31.25;27.75;;;;;;;;5041103;28;51153;-49
2022/05/04 01:59:02;;;;;;;;;33.25;31.75;;;;;;;;5043704;28;50887;-49
2022/05/04 02:01:28;;;;;;;;;30.00;27.25;;;;;;;;5035878;28;51192;-49
2022/05/04 02:03:53;;;;;;;;;35.75;31.50;;;;;;;;5031787;28;50987;-51
2022/05/04 02:06:18;;;;;;;;;31.50;31.25;;;;;;;;5019872;28;52055;-51
2022/05/04 02:08:44;;;;;;;;;38.75;33.75;;;;;;;;5037196;28;51066;-49
2022/05/04 02:11:10;;;;;;;;;37.75;32.25;;;;;;;;5020841;28;51466;-48
2022/05/04 02:13:35;;;;;;;;;35.25;30.25;;;;;;;;5039221;28;51288;-51
2022/05/04 02:16:00;;;;;;;;;38.25;33.50;;;;;;;;5034702;28;52322;-49
2022/05/04 02:18:25;;;;;;;;;36.25;31.50;;;;;;;;5018565;28;50915;-49
2022/05/04 02:20:50;;;;;;;;;34.00;32.25;;;;;;;;5038789;28;51144;-56
2022/05/04 02:23:16;;;;;;;;;31.25;30.00;;;;;;;;5035890;28;51381;-50
2022/05/04 02:25:41;;;;;;;;;32.25;30.75;;;;;;;;5041782;28;51885;-51
2022/05/04 02:28:06;;;;;;;;;40.25;35.00;;;;;;;;5031017;28;51144;-54
2022/05/04 02:30:31;;;;;;;;;35.50;32.75;;;;;;;;5034203;28;50984;-50
2022/05/04 02:32:56;;;;;;;;;35.75;30.75;;;;;;;;5033993;28;51043;-50
2022/05/04 02:38:05;;;;;;;;;34.75;32.00;;;;;;;;5034862;28;51186;-49
2022/05/04 02:40:31;;;;;;;;;37.75;34.50;;;;;;;;5030661;28;51256;-48
2022/05/04 02:42:56;;;;;;;;;32.75;29.00;;;;;;;;5033417;28;51262;-49
2022/05/04 02:45:21;;;;;;;;;30.25;29.25;;;;;;;;5037649;28;51822;-50
2022/05/04 02:47:46;;;;;;;;;29.00;28.00;;;;;;;;5048202;28;51157;-47
2022/05/04 02:50:11;;;;;;;;;34.00;30.50;;;;;;;;5039945;28;51180;-48
2022/05/04 02:52:37;;;;;;;;;40.50;33.50;;;;;;;;5038970;28;51175;-48
2022/05/04 02:55:02;;;;;;;;;31.50;28.75;;;;;;;;5032290;28;51134;-51
2022/05/04 02:57:28;;;;;;;;;39.25;33.00;;;;;;;;5034656;28;51115;-49
2022/05/04 02:59:53;;;;;;;;;37.00;33.50;;;;;;;;5035912;28;51147;-50
2022/05/04 03:02:27;;;;;;;;;35.00;33.00;;;;;;;;5039465;28;51186;-50
2022/05/04 03:05:12;;;;;;;;;32.00;29.50;;;;;;;;5040228;28;51295;-49
2022/05/04 03:07:37;;;;;;;;;37.00;34.50;;;;;;;;5035256;28;51119;-50
2022/05/04 03:10:03;;;;;;;;;36.25;32.25;;;;;;;;5035141;28;52820;-50
2022/05/04 03:12:28;;;;;;;;;31.00;29.00;;;;;;;;5040067;28;51028;-48
2022/05/04 03:14:54;;;;;;;;;34.75;32.50;;;;;;;;5041015;28;51999;-49
2022/05/04 03:17:19;;;;;;;;;37.50;33.25;;;;;;;;5022113;28;51105;-49
2022/05/04 03:19:44;;;;;;;;;36.50;32.75;;;;;;;;5039332;28;51053;-49
2022/05/04 03:22:10;;;;;;;;;46.00;35.25;;;;;;;;5032687;28;51195;-50
2022/05/04 03:24:35;;;;;;;;;42.75;36.00;;;;;;;;5034716;28;51113;-51
2022/05/04 03:27:00;;;;;;;;;49.00;40.75;;;;;;;;5031976;28;51078;-49
2022/05/04 03:29:25;;;;;;;;;51.50;42.75;;;;;;;;5032055;28;51213;-49
2022/05/04 03:31:51;;;;;;;;;49.25;39.50;;;;;;;;5031714;28;51185;-51
2022/05/04 03:34:16;;;;;;;;;43.00;37.50;;;;;;;;5034260;28;52176;-51
2022/05/04 03:36:41;;;;;;;;;45.00;38.00;;;;;;;;5023995;28;52392;-50
2022/05/04 03:39:07;;;;;;;;;49.00;40.00;;;;;;;;5035353;28;51319;-50
2022/05/04 03:41:33;;;;;;;;;47.25;38.75;;;;;;;;5046464;28;51111;-51
2022/05/04 03:43:58;;;;;;;;;53.00;42.00;;;;;;;;5032592;28;51139;-49
2022/05/04 03:46:25;;;;;;;;;43.00;37.25;;;;;;;;5031067;28;51129;-49
2022/05/04 03:48:54;;;;;;;;;44.50;37.00;;;;;;;;5030815;28;51013;-49
2022/05/04 03:51:20;;;;;;;;;41.25;35.25;;;;;;;;5032389;28;51008;-48
2022/05/04 03:53:48;;;;;;;;;43.00;35.00;;;;;;;;5036341;28;52620;-48
2022/05/04 03:56:14;;;;;;;;;38.75;35.00;;;;;;;;5036842;28;51004;-52
2022/05/04 03:58:40;;;;;;;;;36.75;33.25;;;;;;;;5038736;28;51311;-49
2022/05/04 04:01:05;;;;;;;;;42.75;35.25;;;;;;;;5033515;28;51163;-50
2022/05/04 04:03:31;;;;;;;;;43.00;35.25;;;;;;;;5033352;28;51089;-52
2022/05/04 04:05:56;;;;;;;;;30.25;29.00;;;;;;;;5041392;28;50981;-50
2022/05/04 04:08:21;;;;;;;;;36.50;33.25;;;;;;;;5041687;28;51021;-52
2022/05/04 04:10:47;;;;;;;;;32.00;29.75;;;;;;;;5045142;28;51313;-50
2022/05/04 04:13:12;;;;;;;;;45.00;36.00;;;;;;;;5038538;28;51826;-49
2022/05/04 04:15:37;;;;;;;;;35.75;32.50;;;;;;;;5035967;28;52656;-50
2022/05/04 04:18:03;;;;;;;;;37.50;33.50;;;;;;;;5044190;28;51129;-50
2022/05/04 04:23:19;;;;;;;;;38.00;33.25;;;;;;;;5032872;28;51752;-49
2022/05/04 04:25:45;;;;;;;;;32.25;30.00;;;;;;;;5038576;28;51963;-50
2022/05/04 04:28:10;;;;;;;;;35.25;34.00;;;;;;;;5031365;28;51561;-49
2022/05/04 04:30:39;;;;;;;;;34.50;32.50;;;;;;;;5044313;28;51144;-48
2022/05/04 04:33:07;;;;;;;;;33.25;32.25;;;;;;;;5048035;28;51970;-48
2022/05/04 04:35:36;;;;;;;;;34.75;33.00;;;;;;;;5035805;28;51129;-49
2022/05/04 04:38:01;;;;;;;;;42.00;35.50;;;;;;;;5038388;28;51594;-48
2022/05/04 04:40:27;;;;;;;;;37.50;33.25;;;;;;;;5041812;28;51225;-48
2022/05/04 04:42:52;;;;;;;;;40.25;35.75;;;;;;;;5037946;28;51305;-49
2022/05/04 04:45:20;;;;;;;;;31.75;29.00;;;;;;;;5038200;28;51182;-49
2022/05/04 04:47:45;;;;;;;;;40.00;34.50;;;;;;;;5050419;28;51130;-51
2022/05/04 04:50:11;;;;;;;;;38.00;33.25;;;;;;;;5037831;28;51104;-49
2022/05/04 04:52:36;;;;;;;;;30.50;30.25;;;;;;;;5041107;28;51914;-49
2022/05/04 04:55:01;;;;;;;;;34.75;31.25;;;;;;;;5038621;28;50996;-51
2022/05/04 04:57:26;;;;;;;;;38.75;32.50;;;;;;;;5035728;28;51198;-52
2022/05/04 04:59:52;;;;;;;;;35.50;32.00;;;;;;;;5034273;28;51017;-49
2022/05/04 05:02:17;;;;;;;;;35.00;33.00;;;;;;;;5032602;28;52396;-49
2022/05/04 05:04:42;;;;;;;;;35.25;33.00;;;;;;;;5034812;28;50863;-49
2022/05/04 05:07:07;;;;;;;;;37.75;32.75;;;;;;;;5035169;28;52326;-48
2022/05/04 05:09:33;;;;;;;;;36.00;32.75;;;;;;;;5044412;28;51409;-49
2022/05/04 05:11:58;;;;;;;;;32.75;29.75;;;;;;;;5046080;28;51906;-49
2022/05/04 05:17:07;;;;;;;;;34.75;31.00;;;;;;;;5034061;28;51483;-50
2022/05/04 05:19:32;;;;;;;;;26.00;22.50;;;;;;;;5043642;28;51279;-50
2022/05/04 05:21:57;;;;;;;;;41.50;34.25;;;;;;;;5034278;28;51067;-51
2022/05/04 05:24:23;;;;;;;;;36.00;30.25;;;;;;;;5034372;28;51171;-49
2022/05/04 05:26:48;;;;;;;;;35.75;32.50;;;;;;;;5051502;28;50862;-51
2022/05/04 05:29:13;;;;;;;;;36.75;30.00;;;;;;;;5034901;28;50847;-50
2022/05/04 05:31:38;;;;;;;;;33.00;28.75;;;;;;;;5050167;28;51841;-50
2022/05/04 05:34:04;;;;;;;;;34.00;31.50;;;;;;;;5045799;28;50987;-50
2022/05/04 05:36:29;;;;;;;;;35.75;30.50;;;;;;;;5032349;28;51071;-53
2022/05/04 05:38:54;;;;;;;;;31.75;28.50;;;;;;;;5039947;28;50882;-50
2022/05/04 05:41:22;;;;;;;;;40.75;35.50;;;;;;;;5039757;28;51245;-50
2022/05/04 05:43:47;;;;;;;;;31.75;28.50;;;;;;;;5027308;28;51130;-49
2022/05/04 05:46:12;;;;;;;;;28.00;27.00;;;;;;;;5044499;28;51153;-48
2022/05/04 05:48:38;;;;;;;;;33.75;31.50;;;;;;;;5040195;28;51753;-49
2022/05/04 05:51:06;;;;;;;;;30.25;29.50;;;;;;;;5045541;28;51216;-50
2022/05/04 05:53:31;;;;;;;;;33.50;32.50;;;;;;;;5046058;28;51099;-50
2022/05/04 05:55:57;;;;;;;;;35.50;33.50;;;;;;;;5037607;28;51150;-49
2022/05/04 05:58:22;;;;;;;;;29.25;28.25;;;;;;;;5036264;28;51103;-49
2022/05/04 06:00:47;;;;;;;;;34.50;29.25;;;;;;;;5034183;28;51758;-50
2022/05/04 06:03:14;;;;;;;;;39.50;34.75;;;;;;;;5026254;28;51127;-50
2022/05/04 06:05:39;;;;;;;;;38.50;31.75;;;;;;;;5042401;28;51118;-49
2022/05/04 06:08:04;;;;;;;;;33.00;30.25;;;;;;;;5037506;28;51103;-49
2022/05/04 06:10:30;;;;;;;;;35.75;31.50;;;;;;;;5010504;28;52491;-50
2022/05/04 06:12:55;;;;;;;;;31.00;30.50;;;;;;;;5032377;28;50924;-52
2022/05/04 06:15:20;;;;;;;;;37.75;33.25;;;;;;;;5035989;28;51025;-50
2022/05/04 06:17:47;;;;;;;;;33.00;31.75;;;;;;;;5033874;28;52077;-51
2022/05/04 06:20:12;;;;;;;;;34.00;30.50;;;;;;;;5035769;28;52634;-52
2022/05/04 06:22:38;;;;;;;;;37.75;34.00;;;;;;;;5033656;28;52556;-51
2022/05/04 06:25:03;;;;;;;;;33.75;30.25;;;;;;;;5044421;28;51315;-49
2022/05/04 06:27:30;;;;;;;;;32.50;31.00;;;;;;;;5036303;28;51386;-50
2022/05/04 06:35:23;;;;;;;;;35.75;32.00;;;;;;;;5032376;28;51189;-49
2022/05/04 06:37:48;;;;;;;;;36.25;32.00;;;;;;;;5036168;28;51251;-50
2022/05/04 06:40:14;;;;;;;;;41.50;33.75;;;;;;;;5043318;28;51623;-52
2022/05/04 06:42:39;;;;;;;;;36.25;32.50;;;;;;;;5039444;28;51224;-51
2022/05/04 06:45:05;;;;;;;;;42.00;35.50;;;;;;;;5030147;28;51235;-50
2022/05/04 06:47:30;;;;;;;;;32.00;31.00;;;;;;;;5039893;28;51149;-50
2022/05/04 06:49:55;;;;;;;;;42.00;34.50;;;;;;;;5036263;28;51119;-53
2022/05/04 06:52:24;;;;;;;;;42.25;35.50;;;;;;;;5031800;28;51247;-52
2022/05/04 06:54:49;;;;;;;;;42.75;33.00;;;;;;;;5041623;28;51341;-50
2022/05/04 06:57:14;;;;;;;;;36.50;32.50;;;;;;;;5035316;28;51115;-52
2022/05/04 06:59:40;;;;;;;;;36.00;32.75;;;;;;;;5032201;28;51813;-52
2022/05/04 07:02:05;;;;;;;;;39.25;33.50;;;;;;;;5031980;28;50938;-51
2022/05/04 07:04:31;;;;;;;;;42.00;34.25;;;;;;;;5034785;28;51057;-50
2022/05/04 07:06:58;;;;;;;;;46.50;36.00;;;;;;;;5014007;28;51222;-48
2022/05/04 07:09:23;;;;;;;;;43.50;35.00;;;;;;;;5032288;28;51684;-48
2022/05/04 07:11:48;;;;;;;;;38.75;34.00;;;;;;;;5032552;28;51101;-49
2022/05/04 07:14:14;;;;;;;;;39.50;34.00;;;;;;;;5033914;28;51082;-51
2022/05/04 07:16:40;;;;;;;;;36.50;31.75;;;;;;;;5036537;28;51258;-50
2022/05/04 07:19:05;;;;;;;;;44.50;37.75;;;;;;;;5037805;28;51736;-48
2022/05/04 07:21:30;;;;;;;;;42.75;33.75;;;;;;;;5030139;28;51127;-49
2022/05/04 07:23:56;;;;;;;;;38.25;33.25;;;;;;;;5030987;28;51119;-49
2022/05/04 07:26:21;;;;;;;;;42.25;36.25;;;;;;;;5032964;28;51399;-50
2022/05/04 07:28:46;;;;;;;;;38.50;34.00;;;;;;;;5034117;28;51176;-51
2022/05/04 07:31:11;;;;;;;;;45.00;35.75;;;;;;;;5031955;28;51163;-49
2022/05/04 07:33:37;;;;;;;;;40.00;35.00;;;;;;;;5041361;28;51183;-49
2022/05/04 07:36:02;;;;;;;;;45.75;37.25;;;;;;;;5035471;28;51071;-50
2022/05/04 07:38:27;;;;;;;;;36.25;32.50;;;;;;;;5032707;28;51774;-49
2022/05/04 07:43:36;;;;;;;;;37.75;33.75;;;;;;;;5031458;28;51194;-48
2022/05/04 07:46:01;;;;;;;;;36.00;33.00;;;;;;;;5031635;28;50885;-52
2022/05/04 07:48:26;;;;;;;;;45.75;37.50;;;;;;;;5018173;28;51735;-49
2022/05/04 07:50:52;;;;;;;;;42.50;37.25;;;;;;;;5010773;28;51047;-49
2022/05/04 07:53:17;;;;;;;;;41.25;35.00;;;;;;;;5028694;28;51049;-50
2022/05/04 07:55:42;;;;;;;;;44.50;36.25;;;;;;;;5043701;28;51154;-49
2022/05/04 07:58:07;;;;;;;;;44.50;36.25;;;;;;;;5029207;28;51290;-50
2022/05/04 08:06:00;;;;;;;;;42.75;36.00;;;;;;;;5040611;28;50937;-48
2022/05/04 08:08:26;;;;;;;;;46.00;37.00;;;;;;;;5028895;28;53891;-49
2022/05/04 08:10:51;;;;;;;;;48.50;40.50;;;;;;;;5036283;28;51222;-49
2022/05/04 08:13:19;;;;;;;;;54.50;43.50;;;;;;;;5030726;28;50966;-49
2022/05/04 08:15:44;;;;;;;;;46.50;38.50;;;;;;;;5031952;28;51012;-50
2022/05/04 08:18:09;;;;;;;;;43.25;36.00;;;;;;;;5031517;28;51138;-49
2022/05/04 08:20:35;;;;;;;;;46.75;38.50;;;;;;;;5038513;28;51403;-50
2022/05/04 08:23:00;;;;;;;;;56.00;43.00;;;;;;;;5027161;28;51062;-49
2022/05/04 08:25:25;;;;;;;;;47.00;38.50;;;;;;;;5032263;28;51067;-51
2022/05/04 08:27:51;;;;;;;;;45.00;36.00;;;;;;;;5039303;28;51858;-49
2022/05/04 08:30:17;;;;;;;;;46.25;35.75;;;;;;;;5035563;28;51036;-50
2022/05/04 08:32:45;;;;;;;;;48.25;39.25;;;;;;;;5040981;28;51166;-53
2022/05/04 08:35:12;;;;;;;;;43.50;35.50;;;;;;;;5031391;28;51171;-50
2022/05/04 08:37:38;;;;;;;;;39.00;35.25;;;;;;;;5034801;28;51287;-49
2022/05/04 08:40:03;;;;;;;;;46.75;37.25;;;;;;;;5037564;28;51084;-49
2022/05/04 08:42:28;;;;;;;;;45.25;35.50;;;;;;;;5044213;28;51009;-48
2022/05/04 08:44:58;;;;;;;;;49.75;41.75;;;;;;;;5035157;28;50904;-50
2022/05/04 08:47:28;;;;;;;;;51.00;39.50;;;;;;;;5029880;28;51210;-49
2022/05/04 08:49:53;;;;;;;;;51.25;42.00;;;;;;;;5032873;28;52106;-49
2022/05/04 08:52:18;;;;;;;;;58.00;46.50;;;;;;;;5049288;28;51414;-49
2022/05/04 08:54:44;;;;;;;;;48.50;37.50;;;;;;;;5041143;28;50943;-50
2022/05/04 08:57:09;;;;;;;;;51.00;40.75;;;;;;;;5051888;28;51933;-49
2022/05/04 08:59:35;;;;;;;;;42.50;33.25;;;;;;;;5054297;28;50851;-50
2022/05/04 09:02:00;;;;;;;;;45.75;37.75;;;;;;;;5041331;28;50878;-51
2022/05/04 09:04:25;;;;;;;;;41.50;36.25;;;;;;;;5042917;28;51211;-51
2022/05/04 09:06:50;;;;;;;;;52.50;43.00;;;;;;;;5033980;28;51855;-51
2022/05/04 09:09:16;;;;;;;;;46.50;38.25;;;;;;;;5034526;28;51050;-48
2022/05/04 09:11:42;;;;;;;;;40.00;34.50;;;;;;;;5043255;28;51116;-51
2022/05/04 09:14:08;;;;;;;;;38.50;32.00;;;;;;;;5035906;28;51114;-51
2022/05/04 09:16:34;;;;;;;;;42.50;36.25;;;;;;;;5034172;28;51519;-50
2022/05/04 09:19:09;;;;;;;;;32.50;29.75;;;;;;;;5015739;28;51053;-52
2022/05/04 09:21:35;;;;;;;;;41.00;35.50;;;;;;;;5033796;28;51002;-51
2022/05/04 09:24:00;;;;;;;;;39.75;34.00;;;;;;;;5031552;28;51234;-48
2022/05/04 09:26:25;;;;;;;;;44.00;34.25;;;;;;;;5040111;28;51227;-51
2022/05/04 09:28:51;;;;;;;;;32.75;29.75;;;;;;;;5051755;28;50950;-50
2022/05/04 09:31:20;;;;;;;;;47.25;36.00;;;;;;;;5045100;28;51207;-49
2022/05/04 09:33:52;;;;;;;;;46.75;36.75;;;;;;;;5033844;28;51052;-50
2022/05/04 09:36:28;;;;;;;;;34.75;31.75;;;;;;;;5037545;28;52086;-49
2022/05/04 09:46:53;;;;;;;;;44.25;35.25;;;;;;;;5032995;28;51067;-50
2022/05/04 09:49:20;;;;;;;;;38.00;32.25;;;;;;;;5033048;28;51032;-55
2022/05/04 09:51:49;;;;;;;;;34.75;32.50;;;;;;;;5032938;28;51069;-49
2022/05/04 09:54:17;;;;;;;;;40.25;34.25;;;;;;;;5040362;28;51291;-51
2022/05/04 09:56:44;;;;;;;;;32.50;31.25;;;;;;;;5039928;28;52745;-52
2022/05/04 09:59:09;;;;;;;;;29.00;28.75;;;;;;;;5039111;28;50986;-50
2022/05/04 10:01:35;;;;;;;;;34.75;32.25;;;;;;;;5037098;28;51333;-50
2022/05/04 10:04:03;;;;;;;;;32.00;30.50;;;;;;;;5042302;28;51066;-49
2022/05/04 10:06:29;;;;;;;;;33.00;30.00;;;;;;;;5038516;28;52310;-52
2022/05/04 10:08:54;;;;;;;;;33.25;30.25;;;;;;;;5032379;28;50956;-51
2022/05/04 10:11:20;;;;;;;;;29.75;29.50;;;;;;;;5044925;28;50848;-51
2022/05/04 10:13:45;;;;;;;;;34.25;31.75;;;;;;;;5051798;28;51278;-49
2022/05/04 10:16:11;;;;;;;;;31.50;30.00;;;;;;;;5043295;28;51150;-50
2022/05/04 10:18:38;;;;;;;;;32.00;30.00;;;;;;;;5035480;28;51210;-50
2022/05/04 10:21:07;;;;;;;;;35.00;30.75;;;;;;;;5034416;28;51038;-51
2022/05/04 10:23:35;;;;;;;;;34.00;30.25;;;;;;;;5043124;28;51154;-50
2022/05/04 10:26:03;;;;;;;;;33.25;30.25;;;;;;;;5015712;28;51999;-50
2022/05/04 10:28:35;;;;;;;;;30.50;29.50;;;;;;;;5043366;28;51408;-47
2022/05/04 10:31:00;;;;;;;;;30.25;29.00;;;;;;;;5032771;28;50962;-51
2022/05/04 10:33:25;;;;;;;;;29.50;25.75;;;;;;;;5040427;28;51246;-50
2022/05/04 10:35:51;;;;;;;;;28.25;26.25;;;;;;;;5037313;28;51741;-48
2022/05/04 10:38:26;;;;;;;;;36.75;32.75;;;;;;;;5032809;28;51378;-48
2022/05/04 10:40:58;;;;;;;;;30.75;28.75;;;;;;;;5037394;28;50941;-50
2022/05/04 10:43:43;;;;;;;;;27.25;24.75;;;;;;;;5040881;28;51182;-50
2022/05/04 10:46:30;;;;;;;;;27.50;24.75;;;;;;;;5035395;28;52765;-50
2022/05/04 10:49:02;;;;;;;;;39.75;33.25;;;;;;;;5034856;28;52886;-53
2022/05/04 10:51:33;;;;;;;;;30.25;27.25;;;;;;;;5038697;28;51341;-48
2022/05/04 10:53:59;;;;;;;;;21.75;21.25;;;;;;;;5035874;28;51302;-50
2022/05/04 10:56:26;;;;;;;;;28.00;26.50;;;;;;;;5028310;28;51793;-50
2022/05/04 10:58:52;;;;;;;;;23.50;22.50;;;;;;;;5033747;28;51155;-51
2022/05/04 11:01:23;;;;;;;;;26.00;26.00;;;;;;;;5027630;28;51746;-50
2022/05/04 11:03:49;;;;;;;;;31.50;28.75;;;;;;;;5030001;28;51691;-53
2022/05/04 11:06:27;;;;;;;;;27.25;27.00;;;;;;;;5033886;28;51735;-50
2022/05/04 11:08:56;;;;;;;;;30.75;28.00;;;;;;;;5025946;28;51359;-52
2022/05/04 11:11:22;;;;;;;;;25.00;23.50;;;;;;;;5031503;28;51145;-49
2022/05/04 11:13:47;;;;;;;;;30.75;29.00;;;;;;;;5028261;28;51346;-50
2022/05/04 11:16:13;;;;;;;;;27.00;25.50;;;;;;;;5030480;28;51150;-48
2022/05/04 11:18:38;;;;;;;;;31.25;28.00;;;;;;;;5032091;28;51214;-49
2022/05/04 11:21:09;;;;;;;;;27.00;23.50;;;;;;;;5031413;28;51105;-49
2022/05/04 11:23:36;;;;;;;;;25.75;25.75;;;;;;;;5030790;28;52580;-49
2022/05/04 11:26:02;;;;;;;;;24.00;22.75;;;;;;;;5030407;28;52089;-49
2022/05/04 11:28:27;;;;;;;;;22.25;21.25;;;;;;;;5033166;28;51209;-49
2022/05/04 11:30:52;;;;;;;;;25.00;24.00;;;;;;;;5028898;28;51528;-50
2022/05/04 11:33:18;;;;;;;;;24.67;22.33;;;;;;;;5031158;28;51312;-50
2022/05/04 11:35:43;;;;;;;;;22.00;19.00;;;;;;;;5032399;28;51574;-49
2022/05/04 11:38:18;;;;;;;;;24.00;21.67;;;;;;;;5029931;28;51179;-48
2022/05/04 11:40:45;;;;;;;;;19.33;19.00;;;;;;;;5028149;28;52443;-51
2022/05/04 11:43:20;;;;;;;;;20.00;19.00;;;;;;;;5034246;28;51266;-50
2022/05/04 11:45:46;;;;;;;;;20.67;18.67;;;;;;;;5029955;28;51195;-49
2022/05/04 11:48:11;;;;;;;;;16.00;14.33;;;;;;;;5028817;28;51942;-49
2022/05/04 11:50:37;;;;;;;;;19.50;18.50;;;;;;;;5009557;28;51846;-50
2022/05/04 11:53:03;;;;;;;;;12.67;11.00;;;;;;;;5000609;28;51427;-50
2022/05/04 11:55:29;;;;;;;;;12.00;12.00;;;;;;;;5007676;28;52885;-50
2022/05/04 11:57:54;;;;;;;;;9.00;9.00;;;;;;;;5033304;28;51073;-50
2022/05/04 12:00:19;;;;;;;;;7.00;7.00;;;;;;;;5012493;28;51452;-49
2022/05/04 12:02:45;;;;;;;;;8.00;8.00;;;;;;;;5031371;28;51824;-51
2022/05/04 12:05:10;;;;;;;;;9.33;8.00;;;;;;;;5032206;28;51583;-53
2022/05/04 12:07:35;;;;;;;;;10.33;10.00;;;;;;;;5026908;28;51213;-48
2022/05/04 12:10:01;;;;;;;;;11.33;10.67;;;;;;;;5012744;28;51197;-50
2022/05/04 12:12:29;;;;;;;;;12.00;12.00;;;;;;;;5031007;28;51667;-50
2022/05/04 12:14:54;;;;;;;;;13.33;13.00;;;;;;;;5028301;28;53552;-50
2022/05/04 12:17:26;;;;;;;;;13.67;13.33;;;;;;;;5027746;28;51601;-48
2022/05/04 12:19:51;;;;;;;;;11.00;9.00;;;;;;;;5012041;28;51287;-50
2022/05/04 12:22:17;;;;;;;;;12.00;10.00;;;;;;;;5032155;28;51085;-48
2022/05/04 12:24:43;;;;;;;;;32.50;29.50;;;;;;;;5027701;28;51767;-50
2022/05/04 12:27:09;;;;;;;;;11.67;9.33;;;;;;;;5033158;28;51166;-48
2022/05/04 12:35:02;;;;;;;;;7.33;7.00;;;;;;;;5032077;28;51253;-51
2022/05/04 12:37:32;;;;;;;;;10.33;10.33;;;;;;;;5013603;28;51233;-51
2022/05/04 12:39:57;;;;;;;;;10.00;9.33;;;;;;;;5033192;28;52341;-49
2022/05/04 12:42:24;;;;;;;;;9.33;9.33;;;;;;;;5031338;28;51169;-49
2022/05/04 12:44:50;;;;;;;;;8.00;7.00;;;;;;;;5034830;28;51376;-51
2022/05/04 12:47:15;;;;;;;;;8.33;8.33;;;;;;;;5032282;28;51442;-48
2022/05/04 12:49:41;;;;;;;;;8.00;7.67;;;;;;;;5033261;28;51657;-47
2022/05/04 12:52:06;;;;;;;;;9.67;8.00;;;;;;;;5018170;28;51421;-49
2022/05/04 12:54:32;;;;;;;;;10.00;9.00;;;;;;;;5032318;28;53415;-52
2022/05/04 12:56:58;;;;;;;;;19.67;18.67;;;;;;;;5033017;28;55468;-48
2022/05/04 12:59:23;;;;;;;;;9.00;9.00;;;;;;;;5038021;28;51269;-48
2022/05/04 13:01:48;;;;;;;;;7.00;7.00;;;;;;;;5033532;28;51861;-50
2022/05/04 13:04:15;;;;;;;;;4.00;4.00;;;;;;;;5029746;28;51201;-50
2022/05/04 13:06:41;;;;;;;;;5.33;5.33;;;;;;;;5030634;28;51307;-47
2022/05/04 13:09:06;;;;;;;;;8.00;8.00;;;;;;;;5030770;28;51456;-49
2022/05/04 13:11:33;;;;;;;;;5.00;5.00;;;;;;;;5031884;28;51322;-48
2022/05/04 13:13:58;;;;;;;;;6.00;6.00;;;;;;;;5030025;28;51064;-49
2022/05/04 13:16:24;;;;;;;;;6.00;4.33;;;;;;;;5030761;28;51119;-49
2022/05/04 13:18:49;;;;;;;;;6.00;6.00;;;;;;;;5031665;28;51255;-49
2022/05/04 13:21:15;;;;;;;;;4.67;4.33;;;;;;;;5033209;28;51421;-52
2022/05/04 13:23:40;;;;;;;;;7.00;6.00;;;;;;;;5034329;28;52774;-50
2022/05/04 13:26:08;;;;;;;;;4.33;3.33;;;;;;;;5032756;28;51267;-49
2022/05/04 13:28:33;;;;;;;;;5.33;5.00;;;;;;;;5013329;28;51173;-51
2022/05/04 13:31:01;;;;;;;;;4.00;4.00;;;;;;;;5033634;28;50933;-51
2022/05/04 13:33:27;;;;;;;;;5.00;5.00;;;;;;;;5037444;28;52038;-49
2022/05/04 13:35:52;;;;;;;;;2.33;2.33;;;;;;;;5033705;28;51259;-49
2022/05/04 13:38:17;;;;;;;;;5.00;4.00;;;;;;;;5041933;28;51087;-49
2022/05/04 13:40:43;;;;;;;;;5.67;4.33;;;;;;;;5033138;28;51446;-51
2022/05/04 13:43:09;;;;;;;;;5.00;5.00;;;;;;;;5032287;28;51935;-50
2022/05/04 13:45:34;;;;;;;;;4.00;4.00;;;;;;;;5032591;28;51011;-48
2022/05/04 13:47:59;;;;;;;;;4.00;4.00;;;;;;;;5014105;28;50934;-50
2022/05/04 13:53:14;;;;;;;;;5.00;4.00;;;;;;;;5031587;28;51574;-48
2022/05/04 13:55:44;;;;;;;;;5.33;4.67;;;;;;;;5038625;28;51018;-49
2022/05/04 13:58:09;;;;;;;;;4.33;4.33;;;;;;;;5039757;28;51013;-49
2022/05/04 14:00:35;;;;;;;;;5.00;4.00;;;;;;;;5034896;28;52536;-50
2022/05/04 14:03:00;;;;;;;;;3.00;3.00;;;;;;;;5042928;28;51199;-51
2022/05/04 14:05:26;;;;;;;;;4.33;4.00;;;;;;;;5033314;28;50926;-48
2022/05/04 14:07:52;;;;;;;;;6.00;5.00;;;;;;;;5031996;28;50918;-51
2022/05/04 14:10:17;;;;;;;;;5.00;5.00;;;;;;;;5032867;28;51166;-49
2022/05/04 14:12:43;;;;;;;;;3.00;3.00;;;;;;;;5038978;28;51247;-49
2022/05/04 14:15:09;;;;;;;;;3.00;3.00;;;;;;;;5032266;28;51129;-51
2022/05/04 14:17:34;;;;;;;;;4.00;3.67;;;;;;;;5035043;28;51159;-49
2022/05/04 14:20:00;;;;;;;;;4.00;3.00;;;;;;;;5014367;28;51034;-48
2022/05/04 14:22:25;;;;;;;;;5.00;5.00;;;;;;;;5032160;28;51404;-49
2022/05/04 14:24:50;;;;;;;;;4.00;4.00;;;;;;;;5032179;28;50987;-49
2022/05/04 14:27:15;;;;;;;;;3.33;3.00;;;;;;;;5035608;28;50929;-49
2022/05/04 14:29:41;;;;;;;;;4.00;3.00;;;;;;;;5046992;28;51293;-49
2022/05/04 14:32:07;;;;;;;;;5.00;5.00;;;;;;;;5016697;28;51155;-49
2022/05/04 14:34:32;;;;;;;;;5.67;5.00;;;;;;;;5033436;28;50998;-52
2022/05/04 14:36:57;;;;;;;;;5.00;5.00;;;;;;;;5022950;28;51112;-48
2022/05/04 14:39:22;;;;;;;;;5.00;5.00;;;;;;;;5052095;28;50945;-48
2022/05/04 14:41:48;;;;;;;;;3.67;3.67;;;;;;;;5051608;28;52102;-50
2022/05/04 14:44:14;;;;;;;;;3.33;3.33;;;;;;;;5043308;28;51063;-48
2022/05/04 14:46:39;;;;;;;;;3.00;2.67;;;;;;;;5038996;28;50953;-49
2022/05/04 14:49:04;;;;;;;;;5.33;4.00;;;;;;;;5040131;28;51280;-48
2022/05/04 14:51:29;;;;;;;;;4.00;3.67;;;;;;;;5038225;28;50969;-49
2022/05/04 14:53:55;;;;;;;;;4.00;4.00;;;;;;;;5030397;28;50899;-48
2022/05/04 14:56:20;;;;;;;;;3.33;3.33;;;;;;;;5040098;28;50957;-47